sensor_id;sensor_type;location;lat;lon;timestamp;P1;durP1;ratioP1;P2;durP2;ratioP2
9761;SDS011;4920;49.594;11.022;2023-05-10T00:00:47;5.88;;;4.50;;
9761;SDS011;4920;49.594;11.022;2023-05-10T00:03:16;6.05;;;4.53;;
9761;SDS011;4920;49.594;11.022;2023-05-10T00:05:45;5.78;;;4.30;;
9761;SDS011;4920;49.594;11.022;2023-05-10T00:08:13;5.10;;;4.60;;
9761;SDS011;4920;49.594;11.022;2023-05-10T00:10:42;5.68;;;4.60;;
9761;SDS011;4920;49.594;11.022;2023-05-10T00:13:11;7.25;;;4.93;;
9761;SDS011;4920;49.594;11.022;2023-05-10T00:15:41;5.55;;;4.90;;
9761;SDS011;4920;49.594;11.022;2023-05-10T00:18:10;6.93;;;4.82;;
9761;SDS011;4920;49.594;11.022;2023-05-10T00:20:38;6.53;;;5.20;;
9761;SDS011;4920;49.594;11.022;2023-05-10T00:23:07;7.28;;;5.45;;
9761;SDS011;4920;49.594;11.022;2023-05-10T00:25:36;8.52;;;5.53;;
9761;SDS011;4920;49.594;11.022;2023-05-10T00:28:04;7.28;;;5.68;;
9761;SDS011;4920;49.594;11.022;2023-05-10T00:30:33;7.25;;;6.30;;
9761;SDS011;4920;49.594;11.022;2023-05-10T00:33:03;7.45;;;6.30;;
9761;SDS011;4920;49.594;11.022;2023-05-10T00:35:32;7.60;;;6.80;;
9761;SDS011;4920;49.594;11.022;2023-05-10T00:38:01;8.75;;;6.95;;
9761;SDS011;4920;49.594;11.022;2023-05-10T00:40:30;6.95;;;6.28;;
9761;SDS011;4920;49.594;11.022;2023-05-10T00:43:03;6.63;;;5.97;;
9761;SDS011;4920;49.594;11.022;2023-05-10T00:45:34;10.13;;;6.50;;
9761;SDS011;4920;49.594;11.022;2023-05-10T00:48:06;6.80;;;6.07;;
9761;SDS011;4920;49.594;11.022;2023-05-10T00:50:36;6.97;;;6.28;;
9761;SDS011;4920;49.594;11.022;2023-05-10T00:53:06;6.97;;;6.18;;
9761;SDS011;4920;49.594;11.022;2023-05-10T00:55:36;7.32;;;6.30;;
9761;SDS011;4920;49.594;11.022;2023-05-10T00:58:05;8.90;;;6.63;;
9761;SDS011;4920;49.594;11.022;2023-05-10T01:00:34;9.77;;;6.50;;
9761;SDS011;4920;49.594;11.022;2023-05-10T01:03:06;8.57;;;6.90;;
9761;SDS011;4920;49.594;11.022;2023-05-10T01:05:35;7.93;;;7.10;;
9761;SDS011;4920;49.594;11.022;2023-05-10T01:08:04;8.43;;;7.55;;
9761;SDS011;4920;49.594;11.022;2023-05-10T01:10:33;9.77;;;7.50;;
9761;SDS011;4920;49.594;11.022;2023-05-10T01:13:02;7.73;;;7.03;;
9761;SDS011;4920;49.594;11.022;2023-05-10T01:15:31;10.63;;;7.90;;
9761;SDS011;4920;49.594;11.022;2023-05-10T01:18:00;9.63;;;7.43;;
9761;SDS011;4920;49.594;11.022;2023-05-10T01:20:32;9.07;;;6.87;;
9761;SDS011;4920;49.594;11.022;2023-05-10T01:23:16;9.07;;;8.10;;
9761;SDS011;4920;49.594;11.022;2023-05-10T01:32:04;9.73;;;8.57;;
9761;SDS011;4920;49.594;11.022;2023-05-10T01:34:46;9.97;;;8.63;;
9761;SDS011;4920;49.594;11.022;2023-05-10T01:37:25;10.03;;;8.97;;
9761;SDS011;4920;49.594;11.022;2023-05-10T01:40:03;10.23;;;9.23;;
9761;SDS011;4920;49.594;11.022;2023-05-10T01:42:40;10.80;;;9.47;;
9761;SDS011;4920;49.594;11.022;2023-05-10T01:45:17;12.00;;;9.03;;
9761;SDS011;4920;49.594;11.022;2023-05-10T01:47:54;12.90;;;9.40;;
9761;SDS011;4920;49.594;11.022;2023-05-10T01:50:30;9.97;;;8.97;;
9761;SDS011;4920;49.594;11.022;2023-05-10T01:53:00;12.10;;;9.50;;
9761;SDS011;4920;49.594;11.022;2023-05-10T01:55:32;11.07;;;9.47;;
9761;SDS011;4920;49.594;11.022;2023-05-10T01:58:05;11.83;;;9.47;;
9761;SDS011;4920;49.594;11.022;2023-05-10T02:00:39;11.10;;;9.47;;
9761;SDS011;4920;49.594;11.022;2023-05-10T02:03:11;13.57;;;10.57;;
9761;SDS011;4920;49.594;11.022;2023-05-10T02:05:42;14.17;;;9.83;;
9761;SDS011;4920;49.594;11.022;2023-05-10T02:08:13;11.73;;;10.00;;
9761;SDS011;4920;49.594;11.022;2023-05-10T02:10:44;12.30;;;11.00;;
9761;SDS011;4920;49.594;11.022;2023-05-10T02:13:14;16.63;;;10.67;;
9761;SDS011;4920;49.594;11.022;2023-05-10T02:15:45;12.68;;;10.77;;
9761;SDS011;4920;49.594;11.022;2023-05-10T02:18:18;15.43;;;12.10;;
9761;SDS011;4920;49.594;11.022;2023-05-10T02:20:47;14.60;;;11.93;;
9761;SDS011;4920;49.594;11.022;2023-05-10T02:23:16;13.17;;;11.40;;
9761;SDS011;4920;49.594;11.022;2023-05-10T02:25:46;14.77;;;11.57;;
9761;SDS011;4920;49.594;11.022;2023-05-10T02:28:17;12.80;;;11.40;;
9761;SDS011;4920;49.594;11.022;2023-05-10T02:30:47;13.27;;;11.83;;
9761;SDS011;4920;49.594;11.022;2023-05-10T02:33:18;15.07;;;11.80;;
9761;SDS011;4920;49.594;11.022;2023-05-10T02:35:51;16.47;;;12.07;;
9761;SDS011;4920;49.594;11.022;2023-05-10T02:38:20;14.00;;;12.50;;
9761;SDS011;4920;49.594;11.022;2023-05-10T02:40:52;16.67;;;12.67;;
9761;SDS011;4920;49.594;11.022;2023-05-10T02:43:21;15.63;;;13.00;;
9761;SDS011;4920;49.594;11.022;2023-05-10T02:45:52;15.70;;;12.67;;
9761;SDS011;4920;49.594;11.022;2023-05-10T02:48:22;14.57;;;12.70;;
9761;SDS011;4920;49.594;11.022;2023-05-10T02:50:52;16.73;;;12.70;;
9761;SDS011;4920;49.594;11.022;2023-05-10T02:53:30;15.63;;;12.93;;
9761;SDS011;4920;49.594;11.022;2023-05-10T02:56:01;19.27;;;14.47;;
9761;SDS011;4920;49.594;11.022;2023-05-10T02:58:35;15.50;;;13.30;;
9761;SDS011;4920;49.594;11.022;2023-05-10T03:01:03;16.73;;;12.20;;
9761;SDS011;4920;49.594;11.022;2023-05-10T03:03:35;14.13;;;11.23;;
9761;SDS011;4920;49.594;11.022;2023-05-10T03:06:04;10.70;;;8.15;;
9761;SDS011;4920;49.594;11.022;2023-05-10T03:08:33;6.10;;;4.97;;
9761;SDS011;4920;49.594;11.022;2023-05-10T03:11:12;6.53;;;4.25;;
9761;SDS011;4920;49.594;11.022;2023-05-10T03:13:55;4.37;;;3.07;;
9761;SDS011;4920;49.594;11.022;2023-05-10T03:16:34;4.37;;;3.33;;
9761;SDS011;4920;49.594;11.022;2023-05-10T03:19:14;2.67;;;1.77;;
9761;SDS011;4920;49.594;11.022;2023-05-10T03:21:50;2.47;;;1.97;;
9761;SDS011;4920;49.594;11.022;2023-05-10T03:24:20;3.27;;;1.73;;
9761;SDS011;4920;49.594;11.022;2023-05-10T03:26:51;3.53;;;1.80;;
9761;SDS011;4920;49.594;11.022;2023-05-10T03:29:24;2.97;;;1.80;;
9761;SDS011;4920;49.594;11.022;2023-05-10T03:31:54;3.03;;;1.70;;
9761;SDS011;4920;49.594;11.022;2023-05-10T03:34:25;2.28;;;1.60;;
9761;SDS011;4920;49.594;11.022;2023-05-10T03:36:54;2.40;;;1.50;;
9761;SDS011;4920;49.594;11.022;2023-05-10T03:39:24;1.58;;;1.40;;
9761;SDS011;4920;49.594;11.022;2023-05-10T03:41:56;3.83;;;1.40;;
9761;SDS011;4920;49.594;11.022;2023-05-10T03:44:25;3.38;;;1.70;;
9761;SDS011;4920;49.594;11.022;2023-05-10T03:46:54;3.13;;;1.67;;
9761;SDS011;4920;49.594;11.022;2023-05-10T03:49:25;4.50;;;1.70;;
9761;SDS011;4920;49.594;11.022;2023-05-10T03:51:54;2.58;;;1.90;;
9761;SDS011;4920;49.594;11.022;2023-05-10T03:54:26;1.87;;;1.40;;
9761;SDS011;4920;49.594;11.022;2023-05-10T03:56:55;2.45;;;1.55;;
9761;SDS011;4920;49.594;11.022;2023-05-10T03:59:24;1.85;;;1.58;;
9761;SDS011;4920;49.594;11.022;2023-05-10T04:01:53;2.00;;;1.70;;
9761;SDS011;4920;49.594;11.022;2023-05-10T04:04:22;4.15;;;1.70;;
9761;SDS011;4920;49.594;11.022;2023-05-10T04:06:52;4.60;;;1.90;;
9761;SDS011;4920;49.594;11.022;2023-05-10T04:09:21;3.42;;;1.88;;
9761;SDS011;4920;49.594;11.022;2023-05-10T04:11:50;3.53;;;2.00;;
9761;SDS011;4920;49.594;11.022;2023-05-10T04:14:19;2.00;;;1.70;;
9761;SDS011;4920;49.594;11.022;2023-05-10T04:16:48;1.73;;;1.38;;
9761;SDS011;4920;49.594;11.022;2023-05-10T04:19:17;2.00;;;1.42;;
9761;SDS011;4920;49.594;11.022;2023-05-10T04:21:48;3.33;;;1.50;;
9761;SDS011;4920;49.594;11.022;2023-05-10T04:24:18;1.92;;;1.33;;
9761;SDS011;4920;49.594;11.022;2023-05-10T04:29:44;2.30;;;1.38;;
9761;SDS011;4920;49.594;11.022;2023-05-10T04:32:15;3.00;;;1.30;;
9761;SDS011;4920;49.594;11.022;2023-05-10T04:34:44;1.10;;;1.00;;
9761;SDS011;4920;49.594;11.022;2023-05-10T04:37:14;1.88;;;1.30;;
9761;SDS011;4920;49.594;11.022;2023-05-10T04:39:44;3.20;;;1.30;;
9761;SDS011;4920;49.594;11.022;2023-05-10T04:42:15;1.73;;;1.10;;
9761;SDS011;4920;49.594;11.022;2023-05-10T04:44:44;2.25;;;1.30;;
9761;SDS011;4920;49.594;11.022;2023-05-10T04:50:12;1.05;;;0.95;;
9761;SDS011;4920;49.594;11.022;2023-05-10T04:52:44;3.03;;;1.27;;
9761;SDS011;4920;49.594;11.022;2023-05-10T04:55:15;1.30;;;1.20;;
9761;SDS011;4920;49.594;11.022;2023-05-10T04:57:47;4.30;;;1.30;;
9761;SDS011;4920;49.594;11.022;2023-05-10T05:00:16;1.40;;;1.30;;
9761;SDS011;4920;49.594;11.022;2023-05-10T05:02:46;1.40;;;1.30;;
9761;SDS011;4920;49.594;11.022;2023-05-10T05:05:15;2.05;;;1.30;;
9761;SDS011;4920;49.594;11.022;2023-05-10T05:07:46;2.60;;;1.40;;
9761;SDS011;4920;49.594;11.022;2023-05-10T05:10:16;2.55;;;1.60;;
9761;SDS011;4920;49.594;11.022;2023-05-10T05:12:49;1.50;;;1.40;;
9761;SDS011;4920;49.594;11.022;2023-05-10T05:15:18;2.77;;;1.43;;
9761;SDS011;4920;49.594;11.022;2023-05-10T05:17:51;4.60;;;1.25;;
9761;SDS011;4920;49.594;11.022;2023-05-10T05:20:20;1.77;;;1.48;;
9761;SDS011;4920;49.594;11.022;2023-05-10T05:22:49;2.10;;;1.60;;
9761;SDS011;4920;49.594;11.022;2023-05-10T05:25:20;2.33;;;1.38;;
9761;SDS011;4920;49.594;11.022;2023-05-10T05:27:49;3.08;;;1.33;;
9761;SDS011;4920;49.594;11.022;2023-05-10T05:30:18;1.67;;;1.33;;
9761;SDS011;4920;49.594;11.022;2023-05-10T05:32:47;1.70;;;1.40;;
9761;SDS011;4920;49.594;11.022;2023-05-10T05:35:19;1.48;;;1.38;;
9761;SDS011;4920;49.594;11.022;2023-05-10T05:37:48;2.03;;;1.30;;
9761;SDS011;4920;49.594;11.022;2023-05-10T05:40:17;2.42;;;1.30;;
9761;SDS011;4920;49.594;11.022;2023-05-10T05:42:52;1.63;;;1.40;;
9761;SDS011;4920;49.594;11.022;2023-05-10T05:45:20;1.95;;;1.50;;
9761;SDS011;4920;49.594;11.022;2023-05-10T05:47:50;2.80;;;1.52;;
9761;SDS011;4920;49.594;11.022;2023-05-10T05:50:21;1.33;;;1.23;;
9761;SDS011;4920;49.594;11.022;2023-05-10T05:52:50;3.40;;;1.70;;
9761;SDS011;4920;49.594;11.022;2023-05-10T05:55:21;3.15;;;2.38;;
9761;SDS011;4920;49.594;11.022;2023-05-10T05:57:58;2.03;;;1.73;;
9761;SDS011;4920;49.594;11.022;2023-05-10T06:00:28;4.22;;;1.70;;
9761;SDS011;4920;49.594;11.022;2023-05-10T06:02:57;1.70;;;1.60;;
9761;SDS011;4920;49.594;11.022;2023-05-10T06:05:29;2.72;;;1.65;;
9761;SDS011;4920;49.594;11.022;2023-05-10T06:07:59;1.70;;;1.60;;
9761;SDS011;4920;49.594;11.022;2023-05-10T06:10:29;2.08;;;1.55;;
9761;SDS011;4920;49.594;11.022;2023-05-10T06:12:58;2.20;;;2.00;;
9761;SDS011;4920;49.594;11.022;2023-05-10T06:15:27;3.50;;;1.80;;
9761;SDS011;4920;49.594;11.022;2023-05-10T06:17:56;3.90;;;1.85;;
9761;SDS011;4920;49.594;11.022;2023-05-10T06:20:25;3.92;;;1.75;;
9761;SDS011;4920;49.594;11.022;2023-05-10T06:22:54;3.03;;;1.90;;
9761;SDS011;4920;49.594;11.022;2023-05-10T06:25:22;4.20;;;2.03;;
9761;SDS011;4920;49.594;11.022;2023-05-10T06:27:52;3.95;;;1.77;;
9761;SDS011;4920;49.594;11.022;2023-05-10T06:30:24;1.90;;;1.65;;
9761;SDS011;4920;49.594;11.022;2023-05-10T06:32:56;2.28;;;1.65;;
9761;SDS011;4920;49.594;11.022;2023-05-10T06:35:25;2.53;;;1.70;;
9761;SDS011;4920;49.594;11.022;2023-05-10T06:37:54;2.15;;;1.95;;
9761;SDS011;4920;49.594;11.022;2023-05-10T06:40:23;1.70;;;1.40;;
9761;SDS011;4920;49.594;11.022;2023-05-10T06:42:53;1.63;;;1.50;;
9761;SDS011;4920;49.594;11.022;2023-05-10T06:45:22;4.45;;;1.70;;
9761;SDS011;4920;49.594;11.022;2023-05-10T06:47:52;1.80;;;1.50;;
9761;SDS011;4920;49.594;11.022;2023-05-10T06:50:20;3.17;;;1.60;;
9761;SDS011;4920;49.594;11.022;2023-05-10T06:52:49;1.65;;;1.55;;
9761;SDS011;4920;49.594;11.022;2023-05-10T06:55:18;2.67;;;1.55;;
9761;SDS011;4920;49.594;11.022;2023-05-10T06:57:47;1.70;;;1.60;;
9761;SDS011;4920;49.594;11.022;2023-05-10T07:00:19;2.13;;;1.27;;
9761;SDS011;4920;49.594;11.022;2023-05-10T07:02:49;1.40;;;1.30;;
9761;SDS011;4920;49.594;11.022;2023-05-10T07:05:19;1.55;;;1.20;;
9761;SDS011;4920;49.594;11.022;2023-05-10T07:07:48;1.75;;;1.20;;
9761;SDS011;4920;49.594;11.022;2023-05-10T07:10:17;1.38;;;1.20;;
9761;SDS011;4920;49.594;11.022;2023-05-10T07:12:46;1.90;;;1.10;;
9761;SDS011;4920;49.594;11.022;2023-05-10T07:15:14;5.78;;;4.47;;
9761;SDS011;4920;49.594;11.022;2023-05-10T07:17:45;1.88;;;1.10;;
9761;SDS011;4920;49.594;11.022;2023-05-10T07:20:14;1.73;;;1.10;;
9761;SDS011;4920;49.594;11.022;2023-05-10T07:22:43;2.05;;;1.10;;
9761;SDS011;4920;49.594;11.022;2023-05-10T07:25:13;5.28;;;1.20;;
9761;SDS011;4920;49.594;11.022;2023-05-10T07:27:43;1.10;;;1.00;;
9761;SDS011;4920;49.594;11.022;2023-05-10T07:30:13;2.55;;;1.08;;
9761;SDS011;4920;49.594;11.022;2023-05-10T07:32:42;2.72;;;1.08;;
9761;SDS011;4920;49.594;11.022;2023-05-10T07:35:16;2.35;;;0.82;;
9761;SDS011;4920;49.594;11.022;2023-05-10T07:37:45;2.25;;;0.93;;
9761;SDS011;4920;49.594;11.022;2023-05-10T07:40:14;0.95;;;0.90;;
9761;SDS011;4920;49.594;11.022;2023-05-10T07:45:39;1.70;;;0.95;;
9761;SDS011;4920;49.594;11.022;2023-05-10T07:48:11;1.23;;;0.90;;
9761;SDS011;4920;49.594;11.022;2023-05-10T07:50:42;2.53;;;1.05;;
9761;SDS011;4920;49.594;11.022;2023-05-10T07:53:11;2.03;;;1.17;;
9761;SDS011;4920;49.594;11.022;2023-05-10T07:55:40;1.20;;;1.10;;
9761;SDS011;4920;49.594;11.022;2023-05-10T07:58:09;1.15;;;1.05;;
9761;SDS011;4920;49.594;11.022;2023-05-10T08:00:38;1.17;;;1.08;;
9761;SDS011;4920;49.594;11.022;2023-05-10T08:03:08;2.22;;;1.27;;
9761;SDS011;4920;49.594;11.022;2023-05-10T08:05:37;1.67;;;1.40;;
9761;SDS011;4920;49.594;11.022;2023-05-10T08:08:07;1.58;;;1.40;;
9761;SDS011;4920;49.594;11.022;2023-05-10T08:10:38;4.63;;;1.30;;
9761;SDS011;4920;49.594;11.022;2023-05-10T08:16:49;3.30;;;1.50;;
9761;SDS011;4920;49.594;11.022;2023-05-10T08:19:18;1.48;;;1.38;;
9761;SDS011;4920;49.594;11.022;2023-05-10T08:21:48;4.57;;;1.73;;
9761;SDS011;4920;49.594;11.022;2023-05-10T08:24:21;4.20;;;1.60;;
9761;SDS011;4920;49.594;11.022;2023-05-10T08:30:21;5.18;;;2.05;;
9761;SDS011;4920;49.594;11.022;2023-05-10T08:32:50;2.03;;;1.85;;
9761;SDS011;4920;49.594;11.022;2023-05-10T08:35:19;4.05;;;1.67;;
9761;SDS011;4920;49.594;11.022;2023-05-10T08:37:48;1.60;;;1.50;;
9761;SDS011;4920;49.594;11.022;2023-05-10T08:40:18;2.10;;;1.90;;
9761;SDS011;4920;49.594;11.022;2023-05-10T08:42:50;1.83;;;1.60;;
9761;SDS011;4920;49.594;11.022;2023-05-10T08:45:24;1.50;;;1.40;;
9761;SDS011;4920;49.594;11.022;2023-05-10T08:47:59;1.98;;;1.42;;
9761;SDS011;4920;49.594;11.022;2023-05-10T08:50:29;2.10;;;1.60;;
9761;SDS011;4920;49.594;11.022;2023-05-10T08:53:00;3.83;;;1.90;;
9761;SDS011;4920;49.594;11.022;2023-05-10T08:55:44;2.20;;;1.98;;
9761;SDS011;4920;49.594;11.022;2023-05-10T08:58:21;3.05;;;1.70;;
9761;SDS011;4920;49.594;11.022;2023-05-10T09:00:51;3.95;;;1.90;;
9761;SDS011;4920;49.594;11.022;2023-05-10T09:03:21;2.90;;;1.90;;
9761;SDS011;4920;49.594;11.022;2023-05-10T09:05:51;3.40;;;2.20;;
9761;SDS011;4920;49.594;11.022;2023-05-10T09:08:22;3.33;;;2.50;;
9761;SDS011;4920;49.594;11.022;2023-05-10T09:10:56;4.07;;;2.42;;
9761;SDS011;4920;49.594;11.022;2023-05-10T09:13:41;3.67;;;2.20;;
9761;SDS011;4920;49.594;11.022;2023-05-10T09:20:36;2.97;;;1.90;;
9761;SDS011;4920;49.594;11.022;2023-05-10T09:23:05;2.25;;;1.60;;
9761;SDS011;4920;49.594;11.022;2023-05-10T09:25:33;2.97;;;1.60;;
9761;SDS011;4920;49.594;11.022;2023-05-10T09:31:24;3.60;;;1.55;;
9761;SDS011;4920;49.594;11.022;2023-05-10T09:34:08;2.25;;;1.60;;
9761;SDS011;4920;49.594;11.022;2023-05-10T09:36:49;2.55;;;1.30;;
9761;SDS011;4920;49.594;11.022;2023-05-10T09:39:29;3.05;;;1.52;;
9761;SDS011;4920;49.594;11.022;2023-05-10T09:42:01;2.28;;;1.60;;
9761;SDS011;4920;49.594;11.022;2023-05-10T09:44:33;3.47;;;1.40;;
9761;SDS011;4920;49.594;11.022;2023-05-10T09:47:06;2.75;;;1.33;;
9761;SDS011;4920;49.594;11.022;2023-05-10T09:49:37;3.58;;;1.40;;
9761;SDS011;4920;49.594;11.022;2023-05-10T09:52:19;3.00;;;1.27;;
9761;SDS011;4920;49.594;11.022;2023-05-10T09:54:57;3.13;;;1.38;;
9761;SDS011;4920;49.594;11.022;2023-05-10T09:57:26;1.45;;;1.10;;
9761;SDS011;4920;49.594;11.022;2023-05-10T09:59:57;4.63;;;1.20;;
9761;SDS011;4920;49.594;11.022;2023-05-10T10:02:39;1.73;;;1.20;;
9761;SDS011;4920;49.594;11.022;2023-05-10T10:05:09;2.38;;;1.33;;
9761;SDS011;4920;49.594;11.022;2023-05-10T10:07:43;3.78;;;1.40;;
9761;SDS011;4920;49.594;11.022;2023-05-10T10:10:16;3.47;;;1.23;;
9761;SDS011;4920;49.594;11.022;2023-05-10T10:15:46;3.40;;;1.48;;
9761;SDS011;4920;49.594;11.022;2023-05-10T10:18:18;2.17;;;1.40;;
9761;SDS011;4920;49.594;11.022;2023-05-10T10:20:59;3.15;;;1.33;;
9761;SDS011;4920;49.594;11.022;2023-05-10T10:23:29;1.85;;;1.20;;
9761;SDS011;4920;49.594;11.022;2023-05-10T10:26:40;1.48;;;1.10;;
9761;SDS011;4920;49.594;11.022;2023-05-10T10:29:31;2.58;;;1.20;;
9761;SDS011;4920;49.594;11.022;2023-05-10T10:32:12;1.90;;;1.20;;
9761;SDS011;4920;49.594;11.022;2023-05-10T10:42:03;1.50;;;1.10;;
9761;SDS011;4920;49.594;11.022;2023-05-10T10:44:46;2.42;;;1.35;;
9761;SDS011;4920;49.594;11.022;2023-05-10T10:47:30;2.17;;;1.10;;
9761;SDS011;4920;49.594;11.022;2023-05-10T10:50:03;1.92;;;1.20;;
9761;SDS011;4920;49.594;11.022;2023-05-10T10:52:35;2.92;;;1.20;;
9761;SDS011;4920;49.594;11.022;2023-05-10T10:55:05;2.20;;;1.13;;
9761;SDS011;4920;49.594;11.022;2023-05-10T10:57:45;2.55;;;1.30;;
9761;SDS011;4920;49.594;11.022;2023-05-10T11:00:19;2.05;;;1.35;;
9761;SDS011;4920;49.594;11.022;2023-05-10T11:02:52;3.63;;;1.30;;
9761;SDS011;4920;49.594;11.022;2023-05-10T11:05:23;3.00;;;1.30;;
9761;SDS011;4920;49.594;11.022;2023-05-10T11:08:11;2.38;;;1.50;;
9761;SDS011;4920;49.594;11.022;2023-05-10T11:10:51;2.88;;;1.58;;
9761;SDS011;4920;49.594;11.022;2023-05-10T11:13:28;2.13;;;1.50;;
9761;SDS011;4920;49.594;11.022;2023-05-10T11:16:15;2.92;;;1.50;;
9761;SDS011;4920;49.594;11.022;2023-05-10T11:18:57;3.65;;;1.60;;
9761;SDS011;4920;49.594;11.022;2023-05-10T11:21:29;1.60;;;1.50;;
9761;SDS011;4920;49.594;11.022;2023-05-10T11:23:59;3.88;;;1.60;;
9761;SDS011;4920;49.594;11.022;2023-05-10T11:26:33;2.53;;;1.50;;
9761;SDS011;4920;49.594;11.022;2023-05-10T11:29:03;4.07;;;1.55;;
9761;SDS011;4920;49.594;11.022;2023-05-10T11:31:32;2.15;;;1.42;;
9761;SDS011;4920;49.594;11.022;2023-05-10T11:34:02;2.95;;;1.90;;
9761;SDS011;4920;49.594;11.022;2023-05-10T11:36:32;2.60;;;1.77;;
9761;SDS011;4920;49.594;11.022;2023-05-10T11:39:03;3.60;;;1.83;;
9761;SDS011;4920;49.594;11.022;2023-05-10T11:41:32;3.03;;;1.90;;
9761;SDS011;4920;49.594;11.022;2023-05-10T11:44:01;2.58;;;1.80;;
9761;SDS011;4920;49.594;11.022;2023-05-10T11:46:30;1.77;;;1.67;;
9761;SDS011;4920;49.594;11.022;2023-05-10T11:49:00;3.92;;;1.55;;
9761;SDS011;4920;49.594;11.022;2023-05-10T11:51:34;4.75;;;1.42;;
9761;SDS011;4920;49.594;11.022;2023-05-10T11:57:27;2.35;;;1.65;;
9761;SDS011;4920;49.594;11.022;2023-05-10T11:59:57;2.40;;;1.23;;
9761;SDS011;4920;49.594;11.022;2023-05-10T12:02:26;1.77;;;1.20;;
9761;SDS011;4920;49.594;11.022;2023-05-10T12:05:05;2.58;;;1.30;;
9761;SDS011;4920;49.594;11.022;2023-05-10T12:12:05;1.58;;;1.35;;
9761;SDS011;4920;49.594;11.022;2023-05-10T12:15:17;1.35;;;1.25;;
9761;SDS011;4920;49.594;11.022;2023-05-10T12:17:47;2.60;;;1.35;;
9761;SDS011;4920;49.594;11.022;2023-05-10T12:20:17;3.60;;;1.60;;
9761;SDS011;4920;49.594;11.022;2023-05-10T12:22:49;4.68;;;1.40;;
9761;SDS011;4920;49.594;11.022;2023-05-10T12:25:21;1.60;;;1.40;;
9761;SDS011;4920;49.594;11.022;2023-05-10T12:27:51;1.85;;;1.27;;
9761;SDS011;4920;49.594;11.022;2023-05-10T12:30:26;2.08;;;1.38;;
9761;SDS011;4920;49.594;11.022;2023-05-10T12:32:59;4.88;;;1.70;;
9761;SDS011;4920;49.594;11.022;2023-05-10T12:35:30;3.15;;;1.50;;
9761;SDS011;4920;49.594;11.022;2023-05-10T12:41:02;2.10;;;1.23;;
9761;SDS011;4920;49.594;11.022;2023-05-10T12:43:32;2.40;;;1.38;;
9761;SDS011;4920;49.594;11.022;2023-05-10T12:46:05;3.70;;;1.63;;
9761;SDS011;4920;49.594;11.022;2023-05-10T12:48:35;3.85;;;1.65;;
9761;SDS011;4920;49.594;11.022;2023-05-10T12:51:04;3.42;;;1.60;;
9761;SDS011;4920;49.594;11.022;2023-05-10T12:53:36;1.88;;;1.65;;
9761;SDS011;4920;49.594;11.022;2023-05-10T12:56:11;2.47;;;1.63;;
9761;SDS011;4920;49.594;11.022;2023-05-10T12:58:40;2.40;;;1.67;;
9761;SDS011;4920;49.594;11.022;2023-05-10T13:01:14;2.40;;;1.38;;
9761;SDS011;4920;49.594;11.022;2023-05-10T13:03:43;4.78;;;1.40;;
9761;SDS011;4920;49.594;11.022;2023-05-10T13:06:13;2.75;;;1.40;;
9761;SDS011;4920;49.594;11.022;2023-05-10T13:08:42;3.92;;;1.48;;
9761;SDS011;4920;49.594;11.022;2023-05-10T13:11:12;2.55;;;1.45;;
9761;SDS011;4920;49.594;11.022;2023-05-10T13:13:43;2.40;;;1.40;;
9761;SDS011;4920;49.594;11.022;2023-05-10T13:16:12;4.57;;;1.63;;
9761;SDS011;4920;49.594;11.022;2023-05-10T13:18:41;2.47;;;1.60;;
9761;SDS011;4920;49.594;11.022;2023-05-10T13:21:10;4.70;;;1.63;;
9761;SDS011;4920;49.594;11.022;2023-05-10T13:23:39;2.95;;;1.60;;
9761;SDS011;4920;49.594;11.022;2023-05-10T13:26:08;3.72;;;1.70;;
9761;SDS011;4920;49.594;11.022;2023-05-10T13:28:39;2.63;;;1.40;;
9761;SDS011;4920;49.594;11.022;2023-05-10T13:31:18;2.03;;;1.65;;
9761;SDS011;4920;49.594;11.022;2023-05-10T13:33:47;2.72;;;1.60;;
9761;SDS011;4920;49.594;11.022;2023-05-10T13:36:16;3.30;;;1.70;;
9761;SDS011;4920;49.594;11.022;2023-05-10T13:38:45;3.92;;;1.80;;
9761;SDS011;4920;49.594;11.022;2023-05-10T13:41:14;2.22;;;1.40;;
9761;SDS011;4920;49.594;11.022;2023-05-10T13:43:44;2.30;;;1.60;;
9761;SDS011;4920;49.594;11.022;2023-05-10T13:46:15;5.05;;;1.88;;
9761;SDS011;4920;49.594;11.022;2023-05-10T13:48:44;5.03;;;1.67;;
9761;SDS011;4920;49.594;11.022;2023-05-10T13:51:13;3.63;;;1.90;;
9761;SDS011;4920;49.594;11.022;2023-05-10T13:53:47;3.45;;;1.65;;
9761;SDS011;4920;49.594;11.022;2023-05-10T13:56:16;4.63;;;2.05;;
9761;SDS011;4920;49.594;11.022;2023-05-10T13:58:53;2.25;;;1.70;;
9761;SDS011;4920;49.594;11.022;2023-05-10T14:01:25;3.78;;;1.90;;
9761;SDS011;4920;49.594;11.022;2023-05-10T14:03:54;4.65;;;2.08;;
9761;SDS011;4920;49.594;11.022;2023-05-10T14:06:23;2.35;;;1.73;;
9761;SDS011;4920;49.594;11.022;2023-05-10T14:08:51;3.67;;;1.60;;
9761;SDS011;4920;49.594;11.022;2023-05-10T14:11:20;4.25;;;2.13;;
9761;SDS011;4920;49.594;11.022;2023-05-10T14:13:50;7.57;;;2.30;;
9761;SDS011;4920;49.594;11.022;2023-05-10T14:16:20;8.13;;;3.45;;
9761;SDS011;4920;49.594;11.022;2023-05-10T14:18:49;8.85;;;4.03;;
9761;SDS011;4920;49.594;11.022;2023-05-10T14:21:18;6.63;;;3.20;;
9761;SDS011;4920;49.594;11.022;2023-05-10T14:23:47;9.40;;;4.70;;
9761;SDS011;4920;49.594;11.022;2023-05-10T14:26:17;8.18;;;3.88;;
9761;SDS011;4920;49.594;11.022;2023-05-10T14:28:47;8.38;;;4.50;;
9761;SDS011;4920;49.594;11.022;2023-05-10T14:31:16;12.05;;;4.70;;
9761;SDS011;4920;49.594;11.022;2023-05-10T14:33:48;10.15;;;5.82;;
9761;SDS011;4920;49.594;11.022;2023-05-10T14:39:12;9.82;;;4.45;;
9761;SDS011;4920;49.594;11.022;2023-05-10T14:41:41;7.32;;;4.15;;
9761;SDS011;4920;49.594;11.022;2023-05-10T14:44:11;3.97;;;3.22;;
9761;SDS011;4920;49.594;11.022;2023-05-10T14:46:40;6.25;;;3.05;;
9761;SDS011;4920;49.594;11.022;2023-05-10T14:49:10;4.93;;;3.00;;
9761;SDS011;4920;49.594;11.022;2023-05-10T14:51:39;6.63;;;3.70;;
9761;SDS011;4920;49.594;11.022;2023-05-10T14:54:08;6.03;;;3.50;;
9761;SDS011;4920;49.594;11.022;2023-05-10T14:56:38;2.97;;;2.70;;
9761;SDS011;4920;49.594;11.022;2023-05-10T14:59:08;3.42;;;2.45;;
9761;SDS011;4920;49.594;11.022;2023-05-10T15:01:37;7.00;;;3.17;;
9761;SDS011;4920;49.594;11.022;2023-05-10T15:04:10;4.18;;;2.28;;
9761;SDS011;4920;49.594;11.022;2023-05-10T15:06:40;2.47;;;1.90;;
9761;SDS011;4920;49.594;11.022;2023-05-10T15:09:09;3.08;;;2.17;;
9761;SDS011;4920;49.594;11.022;2023-05-10T15:11:38;3.25;;;2.85;;
9761;SDS011;4920;49.594;11.022;2023-05-10T15:14:07;3.25;;;2.65;;
9761;SDS011;4920;49.594;11.022;2023-05-10T15:16:36;4.97;;;2.92;;
9761;SDS011;4920;49.594;11.022;2023-05-10T15:19:04;6.45;;;3.70;;
9761;SDS011;4920;49.594;11.022;2023-05-10T15:21:35;4.87;;;3.40;;
9761;SDS011;4920;49.594;11.022;2023-05-10T15:24:05;6.50;;;3.60;;
9761;SDS011;4920;49.594;11.022;2023-05-10T15:26:34;5.33;;;3.93;;
9761;SDS011;4920;49.594;11.022;2023-05-10T15:29:03;6.77;;;4.40;;
9761;SDS011;4920;49.594;11.022;2023-05-10T15:31:32;6.57;;;4.07;;
9761;SDS011;4920;49.594;11.022;2023-05-10T15:34:02;6.53;;;3.57;;
9761;SDS011;4920;49.594;11.022;2023-05-10T15:36:31;5.07;;;3.20;;
9761;SDS011;4920;49.594;11.022;2023-05-10T15:39:01;3.93;;;3.17;;
9761;SDS011;4920;49.594;11.022;2023-05-10T15:41:31;7.90;;;3.33;;
9761;SDS011;4920;49.594;11.022;2023-05-10T15:43:59;4.90;;;3.90;;
9761;SDS011;4920;49.594;11.022;2023-05-10T15:46:28;4.03;;;3.13;;
9761;SDS011;4920;49.594;11.022;2023-05-10T15:48:57;3.67;;;2.90;;
9761;SDS011;4920;49.594;11.022;2023-05-10T15:51:26;3.03;;;2.73;;
9761;SDS011;4920;49.594;11.022;2023-05-10T15:53:55;3.40;;;2.97;;
9761;SDS011;4920;49.594;11.022;2023-05-10T15:56:35;4.67;;;3.00;;
9761;SDS011;4920;49.594;11.022;2023-05-10T15:59:04;3.80;;;3.40;;
9761;SDS011;4920;49.594;11.022;2023-05-10T16:01:34;3.80;;;3.20;;
9761;SDS011;4920;49.594;11.022;2023-05-10T16:04:03;5.73;;;3.53;;
9761;SDS011;4920;49.594;11.022;2023-05-10T16:06:32;3.80;;;3.50;;
9761;SDS011;4920;49.594;11.022;2023-05-10T16:09:00;5.03;;;3.50;;
9761;SDS011;4920;49.594;11.022;2023-05-10T16:11:29;4.20;;;3.80;;
9761;SDS011;4920;49.594;11.022;2023-05-10T16:13:59;4.53;;;3.77;;
9761;SDS011;4920;49.594;11.022;2023-05-10T16:16:28;5.57;;;3.80;;